Cordova, AK

3:49 PM AKDT on September 18, 2014 (GMT -0800)
Cordova-Smith | Change Station
CLOSE
Current Station
Airport
Location: Cordova,
Elevation: 43 ft
Nearby Weather Stations

Elev 43 ft 60.49 °N, 145.45 °W | Updated 56 minutes ago

Light Rain
Light Rain
56 °F
Feels Like 56 °F
N
10
Wind Variable Wind from East

Today
High -- | Low -- °F
--% Chance of Precip.
Yesterday
High -- | Low -- °F
Precip. -- in
7:18 AM 7:54 PM
Waning Crescent, 23% visible
Pressure 28.97 in
Visibility 10.0 miles
Clouds Few 3200 ft
Mostly Cloudy 4200 ft
Overcast 4900 ft
Dew Point 49 °F
Humidity 77%
Rainfall 0.47 in
Snow Depth 0 in , 0 in , 0 in
UV 1 out of 12
Pollen Not available.
Air Quality Not available.
Flu Activity Not available.
METAR PACV 182253Z 09009KT 10SM -RA FEW032 BKN042 OVC049 13/09 A2897 RMK AO2 SLP809 P0003 T01330094

More Conditions Fewer Conditions

Pressure 28.97 in
Visibility 10.0 miles
Clouds Few 3200 ft
Mostly Cloudy 4200 ft
Overcast 4900 ft
Dew Point 49 °F
Humidity 77%
Rainfall 0.47 in
Snow Depth 0 in , 0 in , 0 in
UV 1 out of 12
Pollen Not available.
Air Quality Not available.
Flu Activity Not available.
METAR PACV 182253Z 09009KT 10SM -RA FEW032 BKN042 OVC049 13/09 A2897 RMK AO2 SLP809 P0003 T01330094

More Conditions Fewer Conditions

10-Day Weather Forecast

Almanac

Astronomy

Sep. 18, 2014 Rise Set
Actual Time 7:18 AM AKDT 7:54 PM AKDT
Civil Twilight 6:35 AM AKDT 8:37 PM AKDT
Nautical Twilight 5:43 AM AKDT 9:28 PM AKDT
Astronomical Twilight 4:44 AM AKDT 10:26 PM AKDT
Moon 1:15 AM AKDT 5:47 PM AKDT
Length of Visible Light 14h 01m
Length of Day
12h 36m
Tomorrow will be 5m 31s shorter.
Waning Crescent, 23% of the Moon is Illuminated
Today
Waning Crescent
Sep 24
New
Oct 1
First Quarter
Oct 8
Full
Oct 15
Last Quarter

Today's Extremes

State Highs State Lows

Community

WunderPhotos

Upload Photos

1,754,489 photos uploaded!

WunderBlogs® & News

Nearby

Snow Depth

Station Depth Elevation
Imnaviat Creek 0 in 3050 ft
Coldfoot 0 in 1040 ft
Eagle Summit 0 in 3650 ft
Indian Pass 1 in 2300 ft
Cooper Lake 13 in 1200 ft

Earthquake Activity

City Distance Mag. Time & Date
No recent earthquake activity has been reported nearby.
Minimum magnitude displayed is 2.5.

Coastal Water Temperatures

Place Temperature
No Stations Reporting

Nearby Weather Stations